sensor_id;sensor_type;location;lat;lon;timestamp;P1;durP1;ratioP1;P2;durP2;ratioP2
19969;SDS011;10146;47.754;9.566;2024-03-08T00:01:09;35.08;;;25.45;;
19969;SDS011;10146;47.754;9.566;2024-03-08T00:03:35;33.03;;;25.77;;
19969;SDS011;10146;47.754;9.566;2024-03-08T00:06:00;31.10;;;26.58;;
19969;SDS011;10146;47.754;9.566;2024-03-08T00:08:26;31.95;;;24.02;;
19969;SDS011;10146;47.754;9.566;2024-03-08T00:10:52;32.08;;;24.88;;
19969;SDS011;10146;47.754;9.566;2024-03-08T00:13:17;34.33;;;26.33;;
19969;SDS011;10146;47.754;9.566;2024-03-08T00:15:43;33.95;;;27.35;;
19969;SDS011;10146;47.754;9.566;2024-03-08T00:18:09;32.10;;;26.10;;
19969;SDS011;10146;47.754;9.566;2024-03-08T00:20:36;32.10;;;25.73;;
19969;SDS011;10146;47.754;9.566;2024-03-08T00:23:02;32.67;;;25.08;;
19969;SDS011;10146;47.754;9.566;2024-03-08T00:25:27;32.72;;;24.27;;
19969;SDS011;10146;47.754;9.566;2024-03-08T00:27:53;33.30;;;26.60;;
19969;SDS011;10146;47.754;9.566;2024-03-08T00:30:21;30.77;;;24.63;;
19969;SDS011;10146;47.754;9.566;2024-03-08T00:32:50;31.00;;;24.33;;
19969;SDS011;10146;47.754;9.566;2024-03-08T00:35:16;31.88;;;24.58;;
19969;SDS011;10146;47.754;9.566;2024-03-08T00:37:41;31.65;;;25.65;;
19969;SDS011;10146;47.754;9.566;2024-03-08T00:40:07;31.60;;;24.48;;
19969;SDS011;10146;47.754;9.566;2024-03-08T00:42:34;33.45;;;24.80;;
19969;SDS011;10146;47.754;9.566;2024-03-08T00:45:00;32.10;;;26.08;;
19969;SDS011;10146;47.754;9.566;2024-03-08T00:47:26;31.45;;;25.95;;
19969;SDS011;10146;47.754;9.566;2024-03-08T00:49:52;30.55;;;24.42;;
19969;SDS011;10146;47.754;9.566;2024-03-08T00:52:18;30.50;;;23.95;;
19969;SDS011;10146;47.754;9.566;2024-03-08T00:54:44;29.92;;;25.42;;
19969;SDS011;10146;47.754;9.566;2024-03-08T00:57:10;31.98;;;24.67;;
19969;SDS011;10146;47.754;9.566;2024-03-08T00:59:37;31.02;;;25.15;;
19969;SDS011;10146;47.754;9.566;2024-03-08T01:02:03;30.70;;;24.98;;
19969;SDS011;10146;47.754;9.566;2024-03-08T01:04:29;34.30;;;25.75;;
19969;SDS011;10146;47.754;9.566;2024-03-08T01:06:55;33.75;;;26.38;;
19969;SDS011;10146;47.754;9.566;2024-03-08T01:09:21;31.20;;;26.00;;
19969;SDS011;10146;47.754;9.566;2024-03-08T01:11:47;30.73;;;25.08;;
19969;SDS011;10146;47.754;9.566;2024-03-08T01:14:13;30.90;;;25.27;;
19969;SDS011;10146;47.754;9.566;2024-03-08T01:16:39;31.77;;;26.02;;
19969;SDS011;10146;47.754;9.566;2024-03-08T01:19:04;32.05;;;26.45;;
19969;SDS011;10146;47.754;9.566;2024-03-08T01:21:30;34.20;;;27.33;;
19969;SDS011;10146;47.754;9.566;2024-03-08T01:23:56;33.17;;;26.13;;
19969;SDS011;10146;47.754;9.566;2024-03-08T01:26:21;30.85;;;26.00;;
19969;SDS011;10146;47.754;9.566;2024-03-08T01:28:47;32.00;;;26.98;;
19969;SDS011;10146;47.754;9.566;2024-03-08T01:31:12;34.60;;;26.92;;
19969;SDS011;10146;47.754;9.566;2024-03-08T01:33:38;31.20;;;25.67;;
19969;SDS011;10146;47.754;9.566;2024-03-08T01:36:05;32.67;;;27.13;;
19969;SDS011;10146;47.754;9.566;2024-03-08T01:38:31;32.20;;;26.92;;
19969;SDS011;10146;47.754;9.566;2024-03-08T01:40:56;34.67;;;26.83;;
19969;SDS011;10146;47.754;9.566;2024-03-08T01:43:24;31.55;;;25.60;;
19969;SDS011;10146;47.754;9.566;2024-03-08T01:45:54;30.65;;;25.50;;
19969;SDS011;10146;47.754;9.566;2024-03-08T01:48:22;32.10;;;26.58;;
19969;SDS011;10146;47.754;9.566;2024-03-08T01:50:49;32.45;;;27.00;;
19969;SDS011;10146;47.754;9.566;2024-03-08T01:53:15;32.22;;;26.15;;
19969;SDS011;10146;47.754;9.566;2024-03-08T01:55:44;33.72;;;27.92;;
19969;SDS011;10146;47.754;9.566;2024-03-08T01:58:11;30.50;;;25.20;;
19969;SDS011;10146;47.754;9.566;2024-03-08T02:00:40;31.48;;;26.40;;
19969;SDS011;10146;47.754;9.566;2024-03-08T02:03:09;30.85;;;25.83;;
19969;SDS011;10146;47.754;9.566;2024-03-08T02:05:35;31.45;;;25.27;;
19969;SDS011;10146;47.754;9.566;2024-03-08T02:08:03;35.40;;;28.95;;
19969;SDS011;10146;47.754;9.566;2024-03-08T02:10:32;30.98;;;26.40;;
19969;SDS011;10146;47.754;9.566;2024-03-08T02:12:58;33.95;;;27.80;;
19969;SDS011;10146;47.754;9.566;2024-03-08T02:15:26;34.20;;;27.20;;
19969;SDS011;10146;47.754;9.566;2024-03-08T02:17:51;30.05;;;25.25;;
19969;SDS011;10146;47.754;9.566;2024-03-08T02:20:18;33.15;;;25.77;;
19969;SDS011;10146;47.754;9.566;2024-03-08T02:22:45;29.52;;;25.05;;
19969;SDS011;10146;47.754;9.566;2024-03-08T02:25:11;29.08;;;24.95;;
19969;SDS011;10146;47.754;9.566;2024-03-08T02:27:36;33.95;;;27.30;;
19969;SDS011;10146;47.754;9.566;2024-03-08T02:30:02;30.67;;;25.55;;
19969;SDS011;10146;47.754;9.566;2024-03-08T02:32:30;31.05;;;26.63;;
19969;SDS011;10146;47.754;9.566;2024-03-08T02:34:57;31.80;;;26.27;;
19969;SDS011;10146;47.754;9.566;2024-03-08T02:37:24;32.45;;;27.13;;
19969;SDS011;10146;47.754;9.566;2024-03-08T02:39:50;33.75;;;27.52;;
19969;SDS011;10146;47.754;9.566;2024-03-08T02:42:16;30.88;;;26.30;;
19969;SDS011;10146;47.754;9.566;2024-03-08T02:44:43;34.95;;;28.45;;
19969;SDS011;10146;47.754;9.566;2024-03-08T02:47:11;34.60;;;28.23;;
19969;SDS011;10146;47.754;9.566;2024-03-08T02:49:37;32.42;;;27.55;;
19969;SDS011;10146;47.754;9.566;2024-03-08T02:52:03;33.95;;;27.38;;
19969;SDS011;10146;47.754;9.566;2024-03-08T02:54:29;32.85;;;27.27;;
19969;SDS011;10146;47.754;9.566;2024-03-08T02:56:55;32.65;;;27.42;;
19969;SDS011;10146;47.754;9.566;2024-03-08T02:59:21;32.63;;;26.27;;
19969;SDS011;10146;47.754;9.566;2024-03-08T03:01:47;33.05;;;27.00;;
19969;SDS011;10146;47.754;9.566;2024-03-08T03:04:12;33.17;;;27.88;;
19969;SDS011;10146;47.754;9.566;2024-03-08T03:06:38;33.60;;;27.30;;
19969;SDS011;10146;47.754;9.566;2024-03-08T03:09:04;31.63;;;27.52;;
19969;SDS011;10146;47.754;9.566;2024-03-08T03:11:31;33.95;;;27.55;;
19969;SDS011;10146;47.754;9.566;2024-03-08T03:13:57;32.40;;;27.35;;
19969;SDS011;10146;47.754;9.566;2024-03-08T03:16:22;31.80;;;27.10;;
19969;SDS011;10146;47.754;9.566;2024-03-08T03:18:49;33.13;;;27.85;;
19969;SDS011;10146;47.754;9.566;2024-03-08T03:21:14;33.58;;;27.98;;
19969;SDS011;10146;47.754;9.566;2024-03-08T03:23:40;33.03;;;28.05;;
19969;SDS011;10146;47.754;9.566;2024-03-08T03:26:07;32.63;;;25.90;;
19969;SDS011;10146;47.754;9.566;2024-03-08T03:28:33;32.75;;;27.25;;
19969;SDS011;10146;47.754;9.566;2024-03-08T03:30:59;34.50;;;28.42;;
19969;SDS011;10146;47.754;9.566;2024-03-08T03:33:25;39.67;;;29.50;;
19969;SDS011;10146;47.754;9.566;2024-03-08T03:35:51;33.55;;;27.98;;
19969;SDS011;10146;47.754;9.566;2024-03-08T03:38:19;33.95;;;28.05;;
19969;SDS011;10146;47.754;9.566;2024-03-08T03:40:48;34.33;;;27.73;;
19969;SDS011;10146;47.754;9.566;2024-03-08T03:43:17;34.97;;;27.33;;
19969;SDS011;10146;47.754;9.566;2024-03-08T03:45:43;35.92;;;28.30;;
19969;SDS011;10146;47.754;9.566;2024-03-08T03:48:08;35.25;;;28.75;;
19969;SDS011;10146;47.754;9.566;2024-03-08T03:50:34;34.50;;;28.25;;
19969;SDS011;10146;47.754;9.566;2024-03-08T03:53:00;34.33;;;28.48;;
19969;SDS011;10146;47.754;9.566;2024-03-08T03:55:27;38.10;;;29.25;;
19969;SDS011;10146;47.754;9.566;2024-03-08T03:57:53;39.92;;;31.35;;
19969;SDS011;10146;47.754;9.566;2024-03-08T04:00:19;38.15;;;30.67;;
19969;SDS011;10146;47.754;9.566;2024-03-08T04:02:45;36.75;;;29.10;;
19969;SDS011;10146;47.754;9.566;2024-03-08T04:05:11;36.42;;;29.20;;
19969;SDS011;10146;47.754;9.566;2024-03-08T04:07:37;35.78;;;29.23;;
19969;SDS011;10146;47.754;9.566;2024-03-08T04:10:04;36.63;;;29.17;;
19969;SDS011;10146;47.754;9.566;2024-03-08T04:12:32;38.15;;;30.38;;
19969;SDS011;10146;47.754;9.566;2024-03-08T04:15:00;38.55;;;30.13;;
19969;SDS011;10146;47.754;9.566;2024-03-08T04:17:26;38.88;;;30.08;;
19969;SDS011;10146;47.754;9.566;2024-03-08T04:19:52;38.83;;;31.25;;
19969;SDS011;10146;47.754;9.566;2024-03-08T04:22:18;39.63;;;31.58;;
19969;SDS011;10146;47.754;9.566;2024-03-08T04:24:44;37.60;;;30.85;;
19969;SDS011;10146;47.754;9.566;2024-03-08T04:27:11;39.05;;;31.35;;
19969;SDS011;10146;47.754;9.566;2024-03-08T04:29:37;36.67;;;30.30;;
19969;SDS011;10146;47.754;9.566;2024-03-08T04:32:03;42.28;;;32.45;;
19969;SDS011;10146;47.754;9.566;2024-03-08T04:34:30;40.38;;;31.50;;
19969;SDS011;10146;47.754;9.566;2024-03-08T04:36:59;41.28;;;31.60;;
19969;SDS011;10146;47.754;9.566;2024-03-08T04:39:25;39.95;;;32.72;;
19969;SDS011;10146;47.754;9.566;2024-03-08T04:41:53;40.85;;;31.45;;
19969;SDS011;10146;47.754;9.566;2024-03-08T04:44:21;43.47;;;33.78;;
19969;SDS011;10146;47.754;9.566;2024-03-08T04:46:48;38.95;;;30.45;;
19969;SDS011;10146;47.754;9.566;2024-03-08T04:49:14;42.75;;;33.35;;
19969;SDS011;10146;47.754;9.566;2024-03-08T04:51:39;44.00;;;32.40;;
19969;SDS011;10146;47.754;9.566;2024-03-08T04:54:05;43.33;;;33.72;;
19969;SDS011;10146;47.754;9.566;2024-03-08T04:56:31;44.05;;;33.72;;
19969;SDS011;10146;47.754;9.566;2024-03-08T04:58:56;46.97;;;34.95;;
19969;SDS011;10146;47.754;9.566;2024-03-08T05:01:22;44.67;;;34.53;;
19969;SDS011;10146;47.754;9.566;2024-03-08T05:03:48;42.72;;;33.50;;
19969;SDS011;10146;47.754;9.566;2024-03-08T05:06:15;44.10;;;33.65;;
19969;SDS011;10146;47.754;9.566;2024-03-08T05:08:41;42.45;;;33.65;;
19969;SDS011;10146;47.754;9.566;2024-03-08T05:11:07;46.25;;;35.60;;
19969;SDS011;10146;47.754;9.566;2024-03-08T05:13:32;43.60;;;34.30;;
19969;SDS011;10146;47.754;9.566;2024-03-08T05:15:59;46.28;;;34.80;;
19969;SDS011;10146;47.754;9.566;2024-03-08T05:18:25;42.38;;;33.20;;
19969;SDS011;10146;47.754;9.566;2024-03-08T05:20:53;47.72;;;35.08;;
19969;SDS011;10146;47.754;9.566;2024-03-08T05:23:18;43.72;;;34.70;;
19969;SDS011;10146;47.754;9.566;2024-03-08T05:25:44;44.08;;;35.42;;
19969;SDS011;10146;47.754;9.566;2024-03-08T05:28:12;44.95;;;34.22;;
19969;SDS011;10146;47.754;9.566;2024-03-08T05:30:38;43.85;;;34.47;;
19969;SDS011;10146;47.754;9.566;2024-03-08T05:33:04;42.42;;;33.38;;
19969;SDS011;10146;47.754;9.566;2024-03-08T05:35:30;45.25;;;34.53;;
19969;SDS011;10146;47.754;9.566;2024-03-08T05:37:55;44.38;;;34.85;;
19969;SDS011;10146;47.754;9.566;2024-03-08T05:40:21;43.17;;;34.60;;
19969;SDS011;10146;47.754;9.566;2024-03-08T05:42:46;43.65;;;34.28;;
19969;SDS011;10146;47.754;9.566;2024-03-08T05:45:12;44.78;;;34.05;;
19969;SDS011;10146;47.754;9.566;2024-03-08T05:47:39;45.03;;;35.17;;
19969;SDS011;10146;47.754;9.566;2024-03-08T05:50:05;44.60;;;33.95;;
19969;SDS011;10146;47.754;9.566;2024-03-08T05:52:33;41.47;;;33.72;;
19969;SDS011;10146;47.754;9.566;2024-03-08T05:54:58;45.88;;;34.47;;
19969;SDS011;10146;47.754;9.566;2024-03-08T05:57:24;42.75;;;33.63;;
19969;SDS011;10146;47.754;9.566;2024-03-08T05:59:49;46.78;;;34.75;;
19969;SDS011;10146;47.754;9.566;2024-03-08T06:02:15;44.67;;;34.67;;
19969;SDS011;10146;47.754;9.566;2024-03-08T06:04:44;46.08;;;35.38;;
19969;SDS011;10146;47.754;9.566;2024-03-08T06:07:14;47.33;;;36.03;;
19969;SDS011;10146;47.754;9.566;2024-03-08T06:09:39;43.30;;;33.90;;
19969;SDS011;10146;47.754;9.566;2024-03-08T06:12:05;44.83;;;35.47;;
19969;SDS011;10146;47.754;9.566;2024-03-08T06:14:31;46.13;;;34.85;;
19969;SDS011;10146;47.754;9.566;2024-03-08T06:16:57;47.13;;;34.75;;
19969;SDS011;10146;47.754;9.566;2024-03-08T06:19:23;45.40;;;35.22;;
19969;SDS011;10146;47.754;9.566;2024-03-08T06:21:48;41.95;;;33.17;;
19969;SDS011;10146;47.754;9.566;2024-03-08T06:24:14;42.25;;;33.72;;
19969;SDS011;10146;47.754;9.566;2024-03-08T06:26:40;43.30;;;33.47;;
19969;SDS011;10146;47.754;9.566;2024-03-08T06:29:06;46.55;;;34.85;;
19969;SDS011;10146;47.754;9.566;2024-03-08T06:31:34;41.83;;;32.88;;
19969;SDS011;10146;47.754;9.566;2024-03-08T06:34:03;42.83;;;33.28;;
19969;SDS011;10146;47.754;9.566;2024-03-08T06:36:32;42.03;;;33.75;;
19969;SDS011;10146;47.754;9.566;2024-03-08T06:38:58;38.50;;;31.38;;
19969;SDS011;10146;47.754;9.566;2024-03-08T06:41:24;42.30;;;32.95;;
19969;SDS011;10146;47.754;9.566;2024-03-08T06:43:49;40.78;;;32.55;;
19969;SDS011;10146;47.754;9.566;2024-03-08T06:46:17;39.83;;;30.67;;
19969;SDS011;10146;47.754;9.566;2024-03-08T06:48:43;36.38;;;29.40;;
19969;SDS011;10146;47.754;9.566;2024-03-08T06:51:10;40.22;;;30.45;;
19969;SDS011;10146;47.754;9.566;2024-03-08T06:53:36;36.42;;;29.58;;
19969;SDS011;10146;47.754;9.566;2024-03-08T06:56:02;39.95;;;29.77;;
19969;SDS011;10146;47.754;9.566;2024-03-08T06:58:28;37.25;;;29.83;;
19969;SDS011;10146;47.754;9.566;2024-03-08T07:00:53;39.45;;;31.02;;
19969;SDS011;10146;47.754;9.566;2024-03-08T07:03:23;38.08;;;29.65;;
19969;SDS011;10146;47.754;9.566;2024-03-08T07:05:48;38.95;;;29.67;;
19969;SDS011;10146;47.754;9.566;2024-03-08T07:08:14;41.95;;;32.45;;
19969;SDS011;10146;47.754;9.566;2024-03-08T07:10:41;40.08;;;29.75;;
19969;SDS011;10146;47.754;9.566;2024-03-08T07:13:07;37.28;;;29.67;;
19969;SDS011;10146;47.754;9.566;2024-03-08T07:15:33;37.08;;;30.45;;
19969;SDS011;10146;47.754;9.566;2024-03-08T07:18:00;36.50;;;29.55;;
19969;SDS011;10146;47.754;9.566;2024-03-08T07:20:26;38.22;;;29.73;;
19969;SDS011;10146;47.754;9.566;2024-03-08T07:22:51;40.38;;;29.55;;
19969;SDS011;10146;47.754;9.566;2024-03-08T07:25:17;36.92;;;28.55;;
19969;SDS011;10146;47.754;9.566;2024-03-08T07:27:49;40.67;;;29.58;;
19969;SDS011;10146;47.754;9.566;2024-03-08T07:30:16;36.70;;;28.50;;
19969;SDS011;10146;47.754;9.566;2024-03-08T07:33:00;36.08;;;28.65;;
19969;SDS011;10146;47.754;9.566;2024-03-08T07:35:27;33.97;;;26.92;;
19969;SDS011;10146;47.754;9.566;2024-03-08T07:37:53;34.67;;;27.45;;
19969;SDS011;10146;47.754;9.566;2024-03-08T07:40:20;32.80;;;26.73;;
19969;SDS011;10146;47.754;9.566;2024-03-08T07:42:46;32.78;;;26.58;;
19969;SDS011;10146;47.754;9.566;2024-03-08T07:45:12;34.88;;;27.73;;
19969;SDS011;10146;47.754;9.566;2024-03-08T07:47:37;32.13;;;26.95;;
19969;SDS011;10146;47.754;9.566;2024-03-08T07:50:03;33.20;;;26.25;;
19969;SDS011;10146;47.754;9.566;2024-03-08T07:52:29;34.90;;;26.08;;
19969;SDS011;10146;47.754;9.566;2024-03-08T07:54:55;32.05;;;26.33;;
19969;SDS011;10146;47.754;9.566;2024-03-08T07:57:21;32.35;;;25.70;;
19969;SDS011;10146;47.754;9.566;2024-03-08T07:59:47;32.20;;;26.05;;
19969;SDS011;10146;47.754;9.566;2024-03-08T08:02:12;31.80;;;26.35;;
19969;SDS011;10146;47.754;9.566;2024-03-08T08:04:38;30.85;;;25.20;;
19969;SDS011;10146;47.754;9.566;2024-03-08T08:07:03;31.02;;;24.92;;
19969;SDS011;10146;47.754;9.566;2024-03-08T08:09:29;30.83;;;25.20;;
19969;SDS011;10146;47.754;9.566;2024-03-08T08:11:59;30.65;;;24.45;;
19969;SDS011;10146;47.754;9.566;2024-03-08T08:14:27;30.27;;;25.13;;
19969;SDS011;10146;47.754;9.566;2024-03-08T08:16:54;30.33;;;25.00;;
19969;SDS011;10146;47.754;9.566;2024-03-08T08:19:20;31.77;;;25.55;;
19969;SDS011;10146;47.754;9.566;2024-03-08T08:21:46;29.83;;;23.83;;
19969;SDS011;10146;47.754;9.566;2024-03-08T08:24:12;29.33;;;23.23;;
19969;SDS011;10146;47.754;9.566;2024-03-08T08:26:38;27.77;;;22.30;;
19969;SDS011;10146;47.754;9.566;2024-03-08T08:29:03;30.40;;;23.45;;
19969;SDS011;10146;47.754;9.566;2024-03-08T08:31:31;30.02;;;24.40;;
19969;SDS011;10146;47.754;9.566;2024-03-08T08:33:59;29.13;;;23.80;;
19969;SDS011;10146;47.754;9.566;2024-03-08T08:36:25;29.45;;;22.67;;
19969;SDS011;10146;47.754;9.566;2024-03-08T08:38:51;28.17;;;21.90;;
19969;SDS011;10146;47.754;9.566;2024-03-08T08:41:19;27.25;;;22.58;;
19969;SDS011;10146;47.754;9.566;2024-03-08T08:43:46;25.80;;;20.98;;
19969;SDS011;10146;47.754;9.566;2024-03-08T08:46:12;25.75;;;20.58;;
19969;SDS011;10146;47.754;9.566;2024-03-08T08:48:40;26.65;;;20.65;;
19969;SDS011;10146;47.754;9.566;2024-03-08T08:51:06;25.23;;;20.77;;
19969;SDS011;10146;47.754;9.566;2024-03-08T08:53:37;25.17;;;19.85;;
19969;SDS011;10146;47.754;9.566;2024-03-08T08:56:10;23.58;;;19.65;;
19969;SDS011;10146;47.754;9.566;2024-03-08T08:58:38;24.27;;;19.23;;
19969;SDS011;10146;47.754;9.566;2024-03-08T09:01:07;23.70;;;20.00;;
19969;SDS011;10146;47.754;9.566;2024-03-08T09:03:35;23.05;;;18.90;;
19969;SDS011;10146;47.754;9.566;2024-03-08T09:06:02;23.60;;;18.88;;
19969;SDS011;10146;47.754;9.566;2024-03-08T09:08:30;23.27;;;19.17;;
19969;SDS011;10146;47.754;9.566;2024-03-08T09:10:56;22.85;;;18.48;;
19969;SDS011;10146;47.754;9.566;2024-03-08T09:13:21;22.83;;;20.35;;
19969;SDS011;10146;47.754;9.566;2024-03-08T09:15:48;23.02;;;19.08;;
19969;SDS011;10146;47.754;9.566;2024-03-08T09:18:13;22.67;;;18.48;;
19969;SDS011;10146;47.754;9.566;2024-03-08T09:20:39;21.90;;;17.90;;
19969;SDS011;10146;47.754;9.566;2024-03-08T09:23:06;23.27;;;19.90;;
19969;SDS011;10146;47.754;9.566;2024-03-08T09:25:33;20.45;;;18.23;;
19969;SDS011;10146;47.754;9.566;2024-03-08T09:27:59;24.30;;;19.63;;
19969;SDS011;10146;47.754;9.566;2024-03-08T09:30:24;23.02;;;18.80;;
19969;SDS011;10146;47.754;9.566;2024-03-08T09:32:50;26.67;;;20.48;;
19969;SDS011;10146;47.754;9.566;2024-03-08T09:35:16;22.75;;;18.25;;
19969;SDS011;10146;47.754;9.566;2024-03-08T09:37:42;24.02;;;19.00;;
19969;SDS011;10146;47.754;9.566;2024-03-08T09:40:07;19.95;;;16.70;;
19969;SDS011;10146;47.754;9.566;2024-03-08T09:42:40;21.63;;;17.88;;
19969;SDS011;10146;47.754;9.566;2024-03-08T09:45:10;21.52;;;17.80;;
19969;SDS011;10146;47.754;9.566;2024-03-08T09:47:38;22.40;;;17.25;;
19969;SDS011;10146;47.754;9.566;2024-03-08T09:50:06;21.92;;;17.60;;
19969;SDS011;10146;47.754;9.566;2024-03-08T09:52:34;21.60;;;17.60;;
19969;SDS011;10146;47.754;9.566;2024-03-08T09:55:03;22.38;;;18.13;;
19969;SDS011;10146;47.754;9.566;2024-03-08T09:57:31;21.65;;;18.00;;
19969;SDS011;10146;47.754;9.566;2024-03-08T09:59:58;22.02;;;17.73;;
19969;SDS011;10146;47.754;9.566;2024-03-08T10:02:24;22.35;;;17.70;;
19969;SDS011;10146;47.754;9.566;2024-03-08T10:04:50;21.58;;;17.35;;
19969;SDS011;10146;47.754;9.566;2024-03-08T10:07:18;22.60;;;17.02;;
19969;SDS011;10146;47.754;9.566;2024-03-08T10:09:44;20.75;;;17.10;;
19969;SDS011;10146;47.754;9.566;2024-03-08T10:12:15;20.30;;;16.75;;
19969;SDS011;10146;47.754;9.566;2024-03-08T10:14:42;21.40;;;16.92;;
19969;SDS011;10146;47.754;9.566;2024-03-08T10:17:08;20.63;;;16.52;;
19969;SDS011;10146;47.754;9.566;2024-03-08T10:19:34;22.50;;;17.50;;
19969;SDS011;10146;47.754;9.566;2024-03-08T10:22:00;20.17;;;17.55;;
19969;SDS011;10146;47.754;9.566;2024-03-08T10:24:25;20.67;;;16.83;;
19969;SDS011;10146;47.754;9.566;2024-03-08T10:27:00;20.35;;;17.02;;
19969;SDS011;10146;47.754;9.566;2024-03-08T10:29:31;20.05;;;16.40;;
19969;SDS011;10146;47.754;9.566;2024-03-08T10:31:57;19.55;;;16.13;;
19969;SDS011;10146;47.754;9.566;2024-03-08T10:34:23;18.88;;;15.98;;
19969;SDS011;10146;47.754;9.566;2024-03-08T10:36:50;20.10;;;15.75;;
19969;SDS011;10146;47.754;9.566;2024-03-08T10:39:21;19.02;;;15.80;;
19969;SDS011;10146;47.754;9.566;2024-03-08T10:41:51;18.85;;;16.10;;
19969;SDS011;10146;47.754;9.566;2024-03-08T10:44:26;19.73;;;16.42;;
19969;SDS011;10146;47.754;9.566;2024-03-08T10:49:30;19.88;;;15.98;;
19969;SDS011;10146;47.754;9.566;2024-03-08T10:52:04;20.40;;;17.10;;
19969;SDS011;10146;47.754;9.566;2024-03-08T10:54:33;20.63;;;16.42;;
19969;SDS011;10146;47.754;9.566;2024-03-08T10:57:03;19.80;;;15.73;;
19969;SDS011;10146;47.754;9.566;2024-03-08T10:59:31;21.13;;;16.65;;
19969;SDS011;10146;47.754;9.566;2024-03-08T11:01:59;20.65;;;16.60;;
19969;SDS011;10146;47.754;9.566;2024-03-08T11:04:25;22.02;;;16.55;;
19969;SDS011;10146;47.754;9.566;2024-03-08T11:06:51;22.58;;;16.77;;
19969;SDS011;10146;47.754;9.566;2024-03-08T11:09:32;22.80;;;17.27;;
19969;SDS011;10146;47.754;9.566;2024-03-08T11:14:48;26.38;;;19.10;;
19969;SDS011;10146;47.754;9.566;2024-03-08T11:20:12;22.67;;;17.88;;
19969;SDS011;10146;47.754;9.566;2024-03-08T11:22:52;22.67;;;17.08;;
19969;SDS011;10146;47.754;9.566;2024-03-08T11:25:36;24.58;;;18.08;;
19969;SDS011;10146;47.754;9.566;2024-03-08T11:28:11;20.55;;;16.42;;
19969;SDS011;10146;47.754;9.566;2024-03-08T11:30:45;20.98;;;17.15;;
19969;SDS011;10146;47.754;9.566;2024-03-08T11:33:16;20.55;;;17.05;;
19969;SDS011;10146;47.754;9.566;2024-03-08T11:35:42;20.92;;;17.05;;
19969;SDS011;10146;47.754;9.566;2024-03-08T11:38:10;22.02;;;16.90;;
19969;SDS011;10146;47.754;9.566;2024-03-08T11:40:38;19.40;;;16.35;;
19969;SDS011;10146;47.754;9.566;2024-03-08T11:43:05;19.52;;;16.48;;
19969;SDS011;10146;47.754;9.566;2024-03-08T11:45:32;20.05;;;16.40;;
19969;SDS011;10146;47.754;9.566;2024-03-08T11:48:01;20.25;;;16.13;;
19969;SDS011;10146;47.754;9.566;2024-03-08T11:50:28;20.05;;;16.77;;
19969;SDS011;10146;47.754;9.566;2024-03-08T11:52:59;18.70;;;15.50;;
19969;SDS011;10146;47.754;9.566;2024-03-08T11:55:27;22.23;;;16.35;;
19969;SDS011;10146;47.754;9.566;2024-03-08T11:57:59;20.70;;;16.83;;
19969;SDS011;10146;47.754;9.566;2024-03-08T12:00:26;20.92;;;16.35;;
19969;SDS011;10146;47.754;9.566;2024-03-08T12:03:02;20.48;;;16.23;;
19969;SDS011;10146;47.754;9.566;2024-03-08T12:05:28;20.95;;;16.30;;
19969;SDS011;10146;47.754;9.566;2024-03-08T12:07:58;21.40;;;15.95;;
19969;SDS011;10146;47.754;9.566;2024-03-08T12:10:24;19.05;;;15.55;;
19969;SDS011;10146;47.754;9.566;2024-03-08T12:12:53;20.35;;;16.10;;
19969;SDS011;10146;47.754;9.566;2024-03-08T12:15:22;19.17;;;15.40;;
19969;SDS011;10146;47.754;9.566;2024-03-08T12:17:52;19.08;;;15.70;;
19969;SDS011;10146;47.754;9.566;2024-03-08T12:20:21;20.08;;;15.75;;
19969;SDS011;10146;47.754;9.566;2024-03-08T12:22:48;20.55;;;15.68;;
19969;SDS011;10146;47.754;9.566;2024-03-08T12:25:17;18.67;;;15.40;;
19969;SDS011;10146;47.754;9.566;2024-03-08T12:27:43;19.20;;;15.30;;
19969;SDS011;10146;47.754;9.566;2024-03-08T12:30:26;18.20;;;14.60;;
19969;SDS011;10146;47.754;9.566;2024-03-08T12:32:59;18.77;;;15.27;;
19969;SDS011;10146;47.754;9.566;2024-03-08T12:35:26;17.63;;;13.82;;
19969;SDS011;10146;47.754;9.566;2024-03-08T12:37:53;18.85;;;15.63;;
19969;SDS011;10146;47.754;9.566;2024-03-08T12:40:29;16.27;;;13.88;;
19969;SDS011;10146;47.754;9.566;2024-03-08T12:42:59;17.45;;;13.75;;
19969;SDS011;10146;47.754;9.566;2024-03-08T12:45:26;17.63;;;13.80;;
19969;SDS011;10146;47.754;9.566;2024-03-08T12:47:52;15.38;;;13.10;;
19969;SDS011;10146;47.754;9.566;2024-03-08T12:50:19;18.08;;;14.30;;
19969;SDS011;10146;47.754;9.566;2024-03-08T12:52:50;16.52;;;13.77;;
19969;SDS011;10146;47.754;9.566;2024-03-08T12:55:17;17.98;;;14.07;;
19969;SDS011;10146;47.754;9.566;2024-03-08T12:57:43;18.75;;;14.07;;
19969;SDS011;10146;47.754;9.566;2024-03-08T13:00:10;17.13;;;13.90;;
19969;SDS011;10146;47.754;9.566;2024-03-08T13:02:44;17.75;;;13.98;;
19969;SDS011;10146;47.754;9.566;2024-03-08T13:05:11;16.75;;;13.88;;
19969;SDS011;10146;47.754;9.566;2024-03-08T13:07:39;16.60;;;13.80;;
19969;SDS011;10146;47.754;9.566;2024-03-08T13:10:14;18.55;;;14.88;;
19969;SDS011;10146;47.754;9.566;2024-03-08T13:12:43;15.77;;;13.50;;
19969;SDS011;10146;47.754;9.566;2024-03-08T13:15:09;16.42;;;13.45;;
19969;SDS011;10146;47.754;9.566;2024-03-08T13:17:39;17.63;;;14.40;;
19969;SDS011;10146;47.754;9.566;2024-03-08T13:20:06;18.25;;;14.70;;
19969;SDS011;10146;47.754;9.566;2024-03-08T13:22:33;18.73;;;15.30;;
19969;SDS011;10146;47.754;9.566;2024-03-08T13:24:58;18.42;;;15.02;;
19969;SDS011;10146;47.754;9.566;2024-03-08T13:27:26;19.05;;;15.45;;
19969;SDS011;10146;47.754;9.566;2024-03-08T13:29:53;17.92;;;14.55;;
19969;SDS011;10146;47.754;9.566;2024-03-08T13:32:18;17.40;;;14.65;;
19969;SDS011;10146;47.754;9.566;2024-03-08T13:34:47;16.67;;;13.23;;
19969;SDS011;10146;47.754;9.566;2024-03-08T13:37:15;18.17;;;14.70;;
19969;SDS011;10146;47.754;9.566;2024-03-08T13:39:41;17.42;;;14.60;;
19969;SDS011;10146;47.754;9.566;2024-03-08T13:42:10;19.17;;;14.00;;
19969;SDS011;10146;47.754;9.566;2024-03-08T13:44:47;17.13;;;14.07;;
19969;SDS011;10146;47.754;9.566;2024-03-08T13:47:16;18.33;;;14.90;;
19969;SDS011;10146;47.754;9.566;2024-03-08T13:49:43;16.92;;;14.02;;
19969;SDS011;10146;47.754;9.566;2024-03-08T13:52:09;17.85;;;14.50;;
19969;SDS011;10146;47.754;9.566;2024-03-08T13:54:37;17.02;;;13.95;;
19969;SDS011;10146;47.754;9.566;2024-03-08T13:57:03;17.40;;;13.52;;
19969;SDS011;10146;47.754;9.566;2024-03-08T13:59:30;15.23;;;13.32;;
19969;SDS011;10146;47.754;9.566;2024-03-08T14:01:57;17.58;;;14.60;;
19969;SDS011;10146;47.754;9.566;2024-03-08T14:04:30;17.00;;;13.73;;
19969;SDS011;10146;47.754;9.566;2024-03-08T14:06:56;17.17;;;14.10;;
19969;SDS011;10146;47.754;9.566;2024-03-08T14:09:24;17.67;;;14.63;;
19969;SDS011;10146;47.754;9.566;2024-03-08T14:11:53;17.70;;;14.35;;
19969;SDS011;10146;47.754;9.566;2024-03-08T14:14:19;16.60;;;14.52;;
19969;SDS011;10146;47.754;9.566;2024-03-08T14:16:47;18.00;;;14.18;;
19969;SDS011;10146;47.754;9.566;2024-03-08T14:19:13;17.63;;;14.48;;
19969;SDS011;10146;47.754;9.566;2024-03-08T14:21:40;20.30;;;14.68;;
19969;SDS011;10146;47.754;9.566;2024-03-08T14:24:07;17.83;;;14.30;;
19969;SDS011;10146;47.754;9.566;2024-03-08T14:26:33;16.85;;;13.85;;
19969;SDS011;10146;47.754;9.566;2024-03-08T14:28:59;16.88;;;13.88;;